»·PEaware :: N626PX KSUN-KBOI

N626PX :: KSUN-KBOI

FLIGHT INFORMATION

Flight Status: Arrived
Operator: Privately registered:
United States
More flights under this callsign
Pilot: Alvin H. (31449)
Aircraft: SOCATA TBM-900
(TBM9)
More flights by this aircraft type
Origin: KSUN Friedman Meml
United States
Destination: KBOI Boise Air Terminal/Gowen
United States
More flights between these airports :: More routes between these airports
Route: KSUN KBOI
File this flight plan on PilotEdge
Remarks:
Altitude:
(Current/Filed)
12,500ft
Speed:
(Current/Filed)
220kts
Departed: 15-Sep-20 05:10 PM
Arrived: 15-Sep-20 05:37 PM
Distance/Time
Traveled:
84nm/0:27
Distance/Time
To Go:
Arrived

Flight Plot

Page will automatically refresh every two minutes.

Flight plan parsing failed; only flown route is shown


Map Options




Map Legend


Flown Route
Filed Route
Departure Airport
Arrival Airport
Navaid (VOR, NDB)
Fix

Horizontal Profiles

Position Reports

Time Latitude Longitude Heading Altitude Ground
Speed
15-Sep-20 16:50 43.503767 -114.299464 243 5300ft 0kts
15-Sep-20 16:52 43.503767 -114.299464 243 5300ft 0kts
15-Sep-20 16:53 43.503767 -114.299464 243 5300ft 0kts
15-Sep-20 16:54 43.503767 -114.299464 243 5300ft 0kts
15-Sep-20 16:55 43.503767 -114.299464 243 5300ft 0kts
15-Sep-20 16:56 43.503767 -114.299464 243 5300ft 0kts
15-Sep-20 16:57 43.503767 -114.299464 243 5300ft 0kts
15-Sep-20 16:58 43.503767 -114.299464 243 5300ft 0kts
15-Sep-20 16:59 43.503767 -114.299464 243 5300ft 0kts
15-Sep-20 17:00 43.503767 -114.299464 243 5300ft 0kts
15-Sep-20 17:01 43.503767 -114.299464 243 5300ft 0kts
15-Sep-20 17:02 43.504055 -114.299213 41 5301ft 8kts
15-Sep-20 17:03 43.505739 -114.298618 323 5304ft 14kts
15-Sep-20 17:04 43.510932 -114.303669 324 5322ft 16kts
15-Sep-20 17:05 43.511516 -114.304240 328 5324ft 0kts
15-Sep-20 17:06 43.511516 -114.304240 328 5324ft 0kts
15-Sep-20 17:07 43.511516 -114.304240 328 5324ft 0kts
15-Sep-20 17:08 43.511516 -114.304240 328 5324ft 0kts
15-Sep-20 17:09 43.512009 -114.303478 145 5321ft 9kts
15-Sep-20 17:09 43.497164 -114.289062 145 5582ft 140kts
15-Sep-20 17:11 43.452646 -114.280010 218 7800ft 164kts
15-Sep-20 17:12 43.434558 -114.356003 255 7783ft 240kts
15-Sep-20 17:12 43.418414 -114.428720 251 8459ft 237kts
15-Sep-20 17:13 43.397686 -114.515214 251 9350ft 238kts
15-Sep-20 17:15 43.374602 -114.616379 257 10411ft 239kts
15-Sep-20 17:15 43.390128 -114.688757 283 11174ft 242kts
15-Sep-20 17:16 43.404245 -114.780213 279 12082ft 246kts
15-Sep-20 17:17 43.416117 -114.876224 279 12388ft 265kts
15-Sep-20 17:18 43.429126 -114.977907 279 12388ft 273kts
15-Sep-20 17:19 43.442714 -115.081131 279 12384ft 274kts
15-Sep-20 17:20 43.455770 -115.178387 280 12389ft 251kts
15-Sep-20 17:21 43.468512 -115.272215 280 12383ft 249kts
15-Sep-20 17:22 43.481215 -115.365084 280 12377ft 240kts
15-Sep-20 17:23 43.493135 -115.451617 280 12371ft 223kts
15-Sep-20 17:24 43.504502 -115.534917 279 12366ft 220kts
15-Sep-20 17:25 43.515775 -115.616841 280 12363ft 211kts
15-Sep-20 17:26 43.526630 -115.707626 278 12354ft 265kts
15-Sep-20 17:27 43.533042 -115.810974 272 12349ft 273kts
15-Sep-20 17:28 43.522742 -115.908030 244 12336ft 242kts
15-Sep-20 17:29 43.498463 -115.978185 256 12228ft 169kts
15-Sep-20 17:30 43.515467 -116.037242 300 10979ft 184kts
15-Sep-20 17:31 43.547637 -116.106314 304 7714ft 244kts
15-Sep-20 17:32 43.584871 -116.176046 301 6251ft 197kts
15-Sep-20 17:33 43.612936 -116.234179 286 5385ft 162kts
15-Sep-20 17:34 43.589109 -116.270656 154 4088ft 146kts
15-Sep-20 17:35 43.566802 -116.226847 116 2848ft 118kts
15-Sep-20 17:36 43.564454 -116.217141 8 2857ft 0kts
15-Sep-20 17:37 43.564595 -116.216964 103 2857ft 6kts
15-Sep-20 17:38 43.565058 -116.214141 6 2859ft 10kts
15-Sep-20 17:39 43.565596 -116.214141 0 2858ft 0kts
15-Sep-20 17:40 43.565596 -116.214141 0 2858ft 0kts
15-Sep-20 17:41 43.565596 -116.214141 0 2858ft 0kts
15-Sep-20 17:42 43.565596 -116.214141 0 2858ft 0kts

Navigation Log

Ident Type
Flight plan parsing failed, navigation log unavailable